createdAt,value
2023-03-07T00:00:48.999Z,89.20
2023-03-07T00:01:48.994Z,88.85
2023-03-07T00:02:49.113Z,88.95
2023-03-07T00:03:49.029Z,88.64
2023-03-07T00:04:51.543Z,88.53
2023-03-07T00:05:48.970Z,88.22
2023-03-07T00:06:48.959Z,88.22
2023-03-07T00:07:49.047Z,88.12
2023-03-07T00:08:48.944Z,88.12
2023-03-07T00:09:48.943Z,87.91
2023-03-07T00:10:48.923Z,88.12
2023-03-07T00:11:48.913Z,87.91
2023-03-07T00:12:49.003Z,88.12
2023-03-07T00:13:48.896Z,88.22
2023-03-07T00:14:48.893Z,87.91
2023-03-07T00:15:48.926Z,88.22
2023-03-07T00:16:48.873Z,88.01
2023-03-07T00:17:48.932Z,87.91
2023-03-07T00:18:48.853Z,88.12
2023-03-07T00:19:48.929Z,88.01
2023-03-07T00:20:48.852Z,87.70
2023-03-07T00:21:48.832Z,87.49
2023-03-07T00:22:48.823Z,87.60
2023-03-07T00:23:48.849Z,88.22
2023-03-07T00:24:48.831Z,88.22
2023-03-07T00:25:48.841Z,87.60
2023-03-07T00:26:48.789Z,87.39
2023-03-07T00:27:48.787Z,87.39
2023-03-07T00:28:48.819Z,87.39
2023-03-07T00:29:48.770Z,87.14
2023-03-07T00:30:48.764Z,87.18
2023-03-07T00:31:48.803Z,86.97
2023-03-07T00:32:48.744Z,87.18
2023-03-07T00:33:48.755Z,87.14
2023-03-07T00:34:48.745Z,87.18
2023-03-07T00:35:48.730Z,87.14
2023-03-07T00:36:48.718Z,87.28
2023-03-07T00:37:48.704Z,87.24
2023-03-07T00:38:48.720Z,87.49
2023-03-07T00:39:49.673Z,87.55
2023-03-07T00:40:48.689Z,87.24
2023-03-07T00:41:48.688Z,87.04
2023-03-07T00:42:48.662Z,87.24
2023-03-07T00:43:48.685Z,87.14
2023-03-07T00:44:48.655Z,88.22
2023-03-07T00:45:48.697Z,87.97
2023-03-07T00:46:48.661Z,87.97
2023-03-07T00:47:48.629Z,88.01
2023-03-07T00:48:48.665Z,88.12
2023-03-07T00:49:48.625Z,87.97
2023-03-07T00:50:48.616Z,88.29
2023-03-07T00:51:48.602Z,88.49
2023-03-07T00:52:48.665Z,88.32
2023-03-07T00:53:48.617Z,88.81
2023-03-07T00:54:48.588Z,89.37
2023-03-07T00:55:48.569Z,89.68
2023-03-07T00:56:48.561Z,90.00
2023-03-07T00:57:48.564Z,90.20
2023-03-07T00:58:48.578Z,90.72
2023-03-07T00:59:48.545Z,91.04
2023-03-07T01:00:48.597Z,91.66
2023-03-07T01:01:48.533Z,91.91
2023-03-07T01:02:48.529Z,92.29
2023-03-07T01:03:48.582Z,92.75
2023-03-07T01:04:48.508Z,92.85
2023-03-07T01:05:48.499Z,92.96
2023-03-07T01:06:48.489Z,92.75
2023-03-07T01:07:48.474Z,93.37
2023-03-07T01:08:48.500Z,94.21
2023-03-07T01:09:48.468Z,93.69
2023-03-07T01:10:49.463Z,93.90
2023-03-07T01:11:48.453Z,94.00
2023-03-07T01:12:48.449Z,94.21
2023-03-07T01:13:48.464Z,94.52
2023-03-07T01:14:48.431Z,94.63
2023-03-07T01:15:48.423Z,94.42
2023-03-07T01:16:48.435Z,94.73
2023-03-07T01:17:48.409Z,95.15
2023-03-07T01:18:48.430Z,95.67
2023-03-07T01:19:48.405Z,95.67
2023-03-07T01:20:48.407Z,95.56
2023-03-07T01:21:48.386Z,95.40
2023-03-07T01:22:48.399Z,95.36
2023-03-07T01:23:48.391Z,95.78
2023-03-07T01:24:48.351Z,95.25
2023-03-07T01:25:48.348Z,95.82
2023-03-07T01:26:48.339Z,95.88
2023-03-07T01:27:48.331Z,95.67
2023-03-07T01:28:48.350Z,95.78
2023-03-07T01:29:48.315Z,95.78
2023-03-07T01:30:48.312Z,95.82
2023-03-07T01:31:48.422Z,95.78
2023-03-07T01:32:48.317Z,96.13
2023-03-07T01:33:48.326Z,96.19
2023-03-07T01:34:48.280Z,95.82
2023-03-07T01:35:48.310Z,96.13
2023-03-07T01:36:48.303Z,96.34
2023-03-07T01:37:48.252Z,96.76
2023-03-07T01:38:48.273Z,96.34
2023-03-07T01:39:48.255Z,96.61
2023-03-07T01:40:48.240Z,96.97
2023-03-07T01:41:48.236Z,97.07
2023-03-07T01:42:48.226Z,97.17
2023-03-07T01:43:48.253Z,97.28
2023-03-07T01:44:48.210Z,97.49
2023-03-07T01:45:48.244Z,97.80
2023-03-07T01:46:48.219Z,97.49
2023-03-07T01:47:48.180Z,97.28
2023-03-07T01:48:48.218Z,97.38
2023-03-07T01:49:48.185Z,98.22
2023-03-07T01:50:48.158Z,97.38
2023-03-07T01:51:48.154Z,97.38
2023-03-07T01:52:48.145Z,98.22
2023-03-07T01:53:48.118Z,97.80
2023-03-07T01:54:49.305Z,97.80
2023-03-07T01:55:48.114Z,98.01
2023-03-07T01:56:48.126Z,97.80
2023-03-07T01:57:48.106Z,97.70
2023-03-07T01:58:48.097Z,97.91
2023-03-07T01:59:48.120Z,97.91
2023-03-07T02:00:48.077Z,97.91
2023-03-07T02:01:48.083Z,97.70
2023-03-07T02:02:48.127Z,97.65
2023-03-07T02:03:48.055Z,97.55
2023-03-07T02:04:48.097Z,98.01
2023-03-07T02:05:48.035Z,97.80
2023-03-07T02:06:48.028Z,97.65
2023-03-07T02:07:48.022Z,97.80
2023-03-07T02:08:48.011Z,97.70
2023-03-07T02:09:48.033Z,98.11
2023-03-07T02:10:48.004Z,98.11
2023-03-07T02:11:47.991Z,98.11
2023-03-07T02:12:48.001Z,98.07
2023-03-07T02:13:47.997Z,98.18
2023-03-07T02:14:47.988Z,98.22
2023-03-07T02:15:47.968Z,98.18
2023-03-07T02:16:47.945Z,97.70
2023-03-07T02:17:47.950Z,98.28
2023-03-07T02:18:47.939Z,97.80
2023-03-07T02:19:48.024Z,97.86
2023-03-07T02:20:47.929Z,97.86
2023-03-07T02:21:47.912Z,97.70
2023-03-07T02:22:47.905Z,97.70
2023-03-07T02:23:47.967Z,97.65
2023-03-07T02:24:47.918Z,98.18
2023-03-07T02:25:47.887Z,97.65
2023-03-07T02:26:47.941Z,98.18
2023-03-07T02:27:47.875Z,97.65
2023-03-07T02:28:47.861Z,97.86
2023-03-07T02:29:47.902Z,97.65
2023-03-07T02:30:47.865Z,97.86
2023-03-07T02:31:47.845Z,97.75
2023-03-07T02:32:47.856Z,98.38
2023-03-07T02:33:47.825Z,97.97
2023-03-07T02:34:47.852Z,98.22
2023-03-07T02:35:47.875Z,98.28
2023-03-07T02:36:47.877Z,98.07
2023-03-07T02:37:47.848Z,98.07
2023-03-07T02:38:47.835Z,98.18
2023-03-07T02:39:47.831Z,97.97
2023-03-07T02:40:47.771Z,98.49
2023-03-07T02:41:47.785Z,98.69
2023-03-07T02:42:47.763Z,98.59
2023-03-07T02:43:47.758Z,98.80
2023-03-07T02:44:47.793Z,98.90
2023-03-07T02:45:47.731Z,98.85
2023-03-07T02:46:47.728Z,98.74
2023-03-07T02:47:47.735Z,98.80
2023-03-07T02:48:47.714Z,98.53
2023-03-07T02:49:47.731Z,99.11
2023-03-07T02:50:47.692Z,98.95
2023-03-07T02:51:47.693Z,99.05
2023-03-07T02:52:47.685Z,98.95
2023-03-07T02:53:47.672Z,98.80
2023-03-07T02:54:47.703Z,99.16
2023-03-07T02:55:47.730Z,98.90
2023-03-07T02:56:47.668Z,99.26
2023-03-07T02:57:47.714Z,98.95
2023-03-07T02:58:47.645Z,99.16
2023-03-07T02:59:47.636Z,99.16
2023-03-07T03:00:47.663Z,98.49
2023-03-07T03:01:47.644Z,99.05
2023-03-07T03:02:47.643Z,98.90
2023-03-07T03:03:47.603Z,99.16
2023-03-07T03:04:47.635Z,99.05
2023-03-07T03:05:47.614Z,99.16
2023-03-07T03:06:47.587Z,99.11
2023-03-07T03:07:47.584Z,99.37
2023-03-07T03:08:47.570Z,99.26
2023-03-07T03:09:47.578Z,99.22
2023-03-07T03:10:47.572Z,99.89
2023-03-07T03:11:47.550Z,99.84
2023-03-07T03:12:47.539Z,99.99
2023-03-07T03:13:47.532Z,99.99
2023-03-07T03:14:47.534Z,99.99
2023-03-07T03:15:47.577Z,99.99
2023-03-07T03:16:47.524Z,99.84
2023-03-07T03:17:47.497Z,99.95
2023-03-07T03:18:47.545Z,99.95
2023-03-07T03:19:47.488Z,99.95
2023-03-07T03:20:47.500Z,99.84
2023-03-07T03:21:47.488Z,99.74
2023-03-07T03:22:47.479Z,99.84
2023-03-07T03:23:47.473Z,99.84
2023-03-07T03:24:47.447Z,99.95
2023-03-07T03:25:47.464Z,99.74
2023-03-07T03:26:47.440Z,99.95
2023-03-07T03:27:47.428Z,99.84
2023-03-07T03:28:47.419Z,99.84
2023-03-07T03:29:47.410Z,99.84
2023-03-07T03:30:47.430Z,99.74
2023-03-07T03:31:47.425Z,99.84
2023-03-07T03:32:47.378Z,99.74
2023-03-07T03:33:47.395Z,99.84
2023-03-07T03:34:47.397Z,99.63
2023-03-07T03:35:47.424Z,99.53
2023-03-07T03:36:47.417Z,99.84
2023-03-07T03:37:47.393Z,99.84
2023-03-07T03:38:47.369Z,99.32
2023-03-07T03:39:47.342Z,99.43
2023-03-07T03:40:47.358Z,99.53
2023-03-07T03:41:47.306Z,99.84
2023-03-07T03:42:47.338Z,99.63
2023-03-07T03:43:47.309Z,99.84
2023-03-07T03:44:48.190Z,99.53
2023-03-07T03:45:47.320Z,99.43
2023-03-07T03:46:47.359Z,99.74
2023-03-07T03:47:47.277Z,99.99
2023-03-07T03:48:47.255Z,99.99
2023-03-07T03:49:47.236Z,99.99
2023-03-07T03:50:48.288Z,99.99
2023-03-07T03:51:47.236Z,99.99
2023-03-07T03:52:47.277Z,99.99
2023-03-07T03:53:47.223Z,99.99
2023-03-07T03:54:47.239Z,99.95
2023-03-07T03:55:47.257Z,99.99
2023-03-07T03:56:47.224Z,99.74
2023-03-07T03:57:47.270Z,99.99
2023-03-07T03:58:47.239Z,99.99
2023-03-07T03:59:47.178Z,99.74
2023-03-07T04:00:47.171Z,99.99
2023-03-07T04:01:47.308Z,99.99
2023-03-07T04:02:47.279Z,99.99
2023-03-07T04:03:47.182Z,99.99
2023-03-07T04:04:47.141Z,99.74
2023-03-07T04:05:47.157Z,99.99
2023-03-07T04:06:47.161Z,99.99
2023-03-07T04:07:47.117Z,99.99
2023-03-07T04:08:47.114Z,99.99
2023-03-07T04:09:47.095Z,99.99
2023-03-07T04:10:47.095Z,99.99
2023-03-07T04:11:47.112Z,99.99
2023-03-07T04:12:47.087Z,99.99
2023-03-07T04:13:47.113Z,99.99
2023-03-07T04:14:47.061Z,99.99
2023-03-07T04:15:47.068Z,99.99
2023-03-07T04:16:47.201Z,99.80
2023-03-07T04:17:47.036Z,99.48
2023-03-07T04:18:47.051Z,99.38
2023-03-07T04:19:47.032Z,99.48
2023-03-07T04:20:47.010Z,99.80
2023-03-07T04:21:47.016Z,99.69
2023-03-07T04:22:47.008Z,99.99
2023-03-07T04:23:46.991Z,99.90
2023-03-07T04:24:47.002Z,99.48
2023-03-07T04:25:46.982Z,98.86
2023-03-07T04:26:47.046Z,98.96
2023-03-07T04:27:47.058Z,99.07
2023-03-07T04:28:46.944Z,99.27
2023-03-07T04:29:46.936Z,98.96
2023-03-07T04:30:46.936Z,98.71
2023-03-07T04:31:46.971Z,98.96
2023-03-07T04:32:46.940Z,98.92
2023-03-07T04:33:46.909Z,98.86
2023-03-07T04:34:46.921Z,99.17
2023-03-07T04:35:46.922Z,98.96
2023-03-07T04:36:47.305Z,98.92
2023-03-07T04:37:46.881Z,98.71
2023-03-07T04:38:46.876Z,98.82
2023-03-07T04:39:46.923Z,98.92
2023-03-07T04:40:46.863Z,98.92
2023-03-07T04:41:46.893Z,98.92
2023-03-07T04:42:46.844Z,99.02
2023-03-07T04:43:46.845Z,98.92
2023-03-07T04:44:46.830Z,99.13
2023-03-07T04:45:46.853Z,98.71
2023-03-07T04:46:46.847Z,98.60
2023-03-07T04:47:46.818Z,98.60
2023-03-07T04:48:46.833Z,99.02
2023-03-07T04:49:46.791Z,98.82
2023-03-07T04:50:46.794Z,98.66
2023-03-07T04:51:46.858Z,98.71
2023-03-07T04:52:46.778Z,98.66
2023-03-07T04:53:46.777Z,98.60
2023-03-07T04:54:46.760Z,98.82
2023-03-07T04:55:46.753Z,98.39
2023-03-07T04:56:47.229Z,98.71
2023-03-07T04:57:46.735Z,98.50
2023-03-07T04:58:46.732Z,98.71
2023-03-07T04:59:46.754Z,98.56
2023-03-07T05:00:46.711Z,98.60
2023-03-07T05:01:46.732Z,98.60
2023-03-07T05:02:46.762Z,98.50
2023-03-07T05:03:46.696Z,98.71
2023-03-07T05:04:46.703Z,98.82
2023-03-07T05:05:46.754Z,98.66
2023-03-07T05:06:46.757Z,98.60
2023-03-07T05:07:46.675Z,98.87
2023-03-07T05:08:46.656Z,98.92
2023-03-07T05:09:46.645Z,98.71
2023-03-07T05:10:46.666Z,98.50
2023-03-07T05:11:46.661Z,98.66
2023-03-07T05:12:46.697Z,98.46
2023-03-07T05:13:46.612Z,98.46
2023-03-07T05:14:46.604Z,98.71
2023-03-07T05:15:46.625Z,98.66
2023-03-07T05:16:46.615Z,98.66
2023-03-07T05:17:46.569Z,98.77
2023-03-07T05:18:48.584Z,98.71
2023-03-07T05:19:46.572Z,98.71
2023-03-07T05:20:46.558Z,98.82
2023-03-07T05:21:46.599Z,98.66
2023-03-07T05:22:46.543Z,98.60
2023-03-07T05:23:46.533Z,98.71
2023-03-07T05:24:46.525Z,98.71
2023-03-07T05:25:46.517Z,98.56
2023-03-07T05:26:46.754Z,98.71
2023-03-07T05:27:46.511Z,98.56
2023-03-07T05:28:46.499Z,98.66
2023-03-07T05:29:46.493Z,98.92
2023-03-07T05:30:46.528Z,98.25
2023-03-07T05:31:46.486Z,98.71
2023-03-07T05:32:46.490Z,98.66
2023-03-07T05:33:46.462Z,98.66
2023-03-07T05:34:46.454Z,98.56
2023-03-07T05:35:46.477Z,98.66
2023-03-07T05:36:46.441Z,98.66
2023-03-07T05:37:46.469Z,98.56
2023-03-07T05:38:46.431Z,98.66
2023-03-07T05:39:46.422Z,98.66
2023-03-07T05:40:46.414Z,98.56
2023-03-07T05:41:46.404Z,98.66
2023-03-07T05:42:46.415Z,98.66
2023-03-07T05:43:46.397Z,98.66
2023-03-07T05:44:46.402Z,98.66
2023-03-07T05:45:46.369Z,98.66
2023-03-07T05:46:46.363Z,98.66
2023-03-07T05:47:46.642Z,98.56
2023-03-07T05:48:46.368Z,98.35
2023-03-07T05:49:46.345Z,98.56
2023-03-07T05:50:46.362Z,98.46
2023-03-07T05:51:46.318Z,98.46
2023-03-07T05:52:46.348Z,98.20
2023-03-07T05:53:46.301Z,98.31
2023-03-07T05:54:46.300Z,98.52
2023-03-07T05:55:46.290Z,98.52
2023-03-07T05:56:46.284Z,97.99
2023-03-07T05:57:46.310Z,97.78
2023-03-07T05:58:46.260Z,98.10
2023-03-07T05:59:46.266Z,97.89
2023-03-07T06:00:46.266Z,97.78
2023-03-07T06:01:46.271Z,98.10
2023-03-07T06:02:46.286Z,98.10
2023-03-07T06:03:46.309Z,97.78
2023-03-07T06:04:46.225Z,97.89
2023-03-07T06:05:46.216Z,97.99
2023-03-07T06:06:46.212Z,98.31
2023-03-07T06:07:46.227Z,97.58
2023-03-07T06:08:46.207Z,97.47
2023-03-07T06:09:46.220Z,97.89
2023-03-07T06:10:46.174Z,97.68
2023-03-07T06:11:46.171Z,97.99
2023-03-07T06:12:46.193Z,97.89
2023-03-07T06:13:46.161Z,97.47
2023-03-07T06:14:46.146Z,97.27
2023-03-07T06:15:46.192Z,97.74
2023-03-07T06:16:46.132Z,97.78
2023-03-07T06:17:46.165Z,97.33
2023-03-07T06:18:46.132Z,97.53
2023-03-07T06:19:46.117Z,97.43
2023-03-07T06:20:46.102Z,97.43
2023-03-07T06:21:46.097Z,97.47
2023-03-07T06:22:46.140Z,97.33
2023-03-07T06:23:46.072Z,97.64
2023-03-07T06:24:46.069Z,97.43
2023-03-07T06:25:46.067Z,97.22
2023-03-07T06:26:46.086Z,97.33
2023-03-07T06:27:46.083Z,97.74
2023-03-07T06:28:46.045Z,97.53
2023-03-07T06:29:46.045Z,97.74
2023-03-07T06:30:46.023Z,97.64
2023-03-07T06:31:46.780Z,97.53
2023-03-07T06:32:46.045Z,97.64
2023-03-07T06:33:46.046Z,97.01
2023-03-07T06:34:45.993Z,97.53
2023-03-07T06:35:46.037Z,97.80
2023-03-07T06:36:45.980Z,97.74
2023-03-07T06:37:46.003Z,97.22
2023-03-07T06:38:45.974Z,96.91
2023-03-07T06:39:46.051Z,97.22
2023-03-07T06:40:45.955Z,97.43
2023-03-07T06:41:45.969Z,97.33
2023-03-07T06:42:45.975Z,96.97
2023-03-07T06:43:45.941Z,97.28
2023-03-07T06:44:45.922Z,97.28
2023-03-07T06:45:46.019Z,97.07
2023-03-07T06:46:45.934Z,96.76
2023-03-07T06:47:45.929Z,96.55
2023-03-07T06:48:45.892Z,96.45
2023-03-07T06:49:45.880Z,96.66
2023-03-07T06:50:45.931Z,96.14
2023-03-07T06:51:45.868Z,96.03
2023-03-07T06:52:45.920Z,96.03
2023-03-07T06:53:45.871Z,96.14
2023-03-07T06:54:45.855Z,95.83
2023-03-07T06:55:45.838Z,95.67
2023-03-07T06:56:45.841Z,95.83
2023-03-07T06:57:45.858Z,95.72
2023-03-07T06:58:45.825Z,95.72
2023-03-07T06:59:45.807Z,95.47
2023-03-07T07:00:45.801Z,95.47
2023-03-07T07:01:45.899Z,95.47
2023-03-07T07:02:45.874Z,95.57
2023-03-07T07:03:45.774Z,95.57
2023-03-07T07:04:45.769Z,95.26
2023-03-07T07:05:45.768Z,95.57
2023-03-07T07:06:45.757Z,94.95
2023-03-07T07:07:45.764Z,95.78
2023-03-07T07:08:45.743Z,95.15
2023-03-07T07:09:45.734Z,95.15
2023-03-07T07:10:45.718Z,95.26
2023-03-07T07:11:45.719Z,95.15
2023-03-07T07:12:45.729Z,95.15
2023-03-07T07:13:45.707Z,94.32
2023-03-07T07:14:45.682Z,94.38
2023-03-07T07:15:45.681Z,94.43
2023-03-07T07:16:45.754Z,94.38
2023-03-07T07:17:45.687Z,94.18
2023-03-07T07:18:45.655Z,94.18
2023-03-07T07:19:45.663Z,94.28
2023-03-07T07:20:45.738Z,94.38
2023-03-07T07:21:45.637Z,94.38
2023-03-07T07:22:45.653Z,93.72
2023-03-07T07:23:45.622Z,93.93
2023-03-07T07:24:45.601Z,93.72
2023-03-07T07:25:45.602Z,93.51
2023-03-07T07:26:45.600Z,94.03
2023-03-07T07:27:45.636Z,93.93
2023-03-07T07:28:45.595Z,93.10
2023-03-07T07:29:45.591Z,93.82
2023-03-07T07:30:45.577Z,93.72
2023-03-07T07:31:45.618Z,92.99
2023-03-07T07:32:45.748Z,92.57
2023-03-07T07:33:45.550Z,92.68
2023-03-07T07:34:45.549Z,92.26
2023-03-07T07:35:45.545Z,92.57
2023-03-07T07:36:45.530Z,92.88
2023-03-07T07:37:45.550Z,92.68
2023-03-07T07:38:45.519Z,92.57
2023-03-07T07:39:45.507Z,92.68
2023-03-07T07:40:45.504Z,92.63
2023-03-07T07:41:45.487Z,92.43
2023-03-07T07:42:45.513Z,92.57
2023-03-07T07:43:45.470Z,92.68
2023-03-07T07:44:46.474Z,92.43
2023-03-07T07:45:45.473Z,92.11
2023-03-07T07:46:45.468Z,92.22
2023-03-07T07:47:45.470Z,92.32
2023-03-07T07:48:45.437Z,92.63
2023-03-07T07:49:45.439Z,91.70
2023-03-07T07:50:45.431Z,91.70
2023-03-07T07:51:45.416Z,92.01
2023-03-07T07:52:45.521Z,92.43
2023-03-07T07:53:45.396Z,92.38
2023-03-07T07:54:45.406Z,91.76
2023-03-07T07:55:45.392Z,91.55
2023-03-07T07:56:45.376Z,91.80
2023-03-07T07:57:45.465Z,91.35
2023-03-07T07:58:45.366Z,91.24
2023-03-07T07:59:45.364Z,91.24
2023-03-07T08:00:45.373Z,91.66
2023-03-07T08:01:45.337Z,91.14
2023-03-07T08:02:45.560Z,91.35
2023-03-07T08:03:45.360Z,91.66
2023-03-07T08:04:45.311Z,91.24
2023-03-07T08:05:45.296Z,91.03
2023-03-07T08:06:45.297Z,91.03
2023-03-07T08:07:45.489Z,91.03
2023-03-07T08:08:45.292Z,91.14
2023-03-07T08:09:45.272Z,91.24
2023-03-07T08:10:45.267Z,91.24
2023-03-07T08:11:45.267Z,91.03
2023-03-07T08:12:45.299Z,91.14
2023-03-07T08:13:45.333Z,90.62
2023-03-07T08:14:45.238Z,91.03
2023-03-07T08:15:45.293Z,90.20
2023-03-07T08:16:45.237Z,89.79
2023-03-07T08:17:45.244Z,90.62
2023-03-07T08:18:45.251Z,90.20
2023-03-07T08:19:45.214Z,90.52
2023-03-07T08:20:45.188Z,90.31
2023-03-07T08:21:45.186Z,90.31
2023-03-07T08:22:45.177Z,90.52
2023-03-07T08:23:46.213Z,90.52
2023-03-07T08:24:45.163Z,90.31
2023-03-07T08:25:45.160Z,90.52
2023-03-07T08:26:45.150Z,90.58
2023-03-07T08:27:45.136Z,90.52
2023-03-07T08:28:45.148Z,90.20
2023-03-07T08:29:46.210Z,90.00
2023-03-07T08:30:45.127Z,90.31
2023-03-07T08:31:45.113Z,90.10
2023-03-07T08:32:45.127Z,90.06
2023-03-07T08:33:45.119Z,90.00
2023-03-07T08:34:45.085Z,90.52
2023-03-07T08:35:45.090Z,90.20
2023-03-07T08:36:45.079Z,90.20
2023-03-07T08:37:45.067Z,89.89
2023-03-07T08:38:45.111Z,89.79
2023-03-07T08:39:45.046Z,89.79
2023-03-07T08:40:45.043Z,90.00
2023-03-07T08:41:45.029Z,89.34
2023-03-07T08:42:45.064Z,89.65
2023-03-07T08:43:45.053Z,89.44
2023-03-07T08:44:45.010Z,89.48
2023-03-07T08:45:44.998Z,89.54
2023-03-07T08:46:45.074Z,90.06
2023-03-07T08:47:45.032Z,90.06
2023-03-07T08:48:45.003Z,89.75
2023-03-07T08:49:44.965Z,89.86
2023-03-07T08:50:44.977Z,89.44
2023-03-07T08:51:44.960Z,88.92
2023-03-07T08:52:44.969Z,88.82
2023-03-07T08:53:44.970Z,89.03
2023-03-07T08:54:44.938Z,88.61
2023-03-07T08:55:44.989Z,89.23
2023-03-07T08:56:44.922Z,89.03
2023-03-07T08:57:44.915Z,88.61
2023-03-07T08:58:44.926Z,88.51
2023-03-07T08:59:44.904Z,88.82
2023-03-07T09:00:44.882Z,88.51
2023-03-07T09:01:44.946Z,88.20
2023-03-07T09:02:44.939Z,87.95
2023-03-07T09:03:44.891Z,88.05
2023-03-07T09:04:44.884Z,87.84
2023-03-07T09:05:44.845Z,87.84
2023-03-07T09:06:44.845Z,87.84
2023-03-07T09:07:44.849Z,87.63
2023-03-07T09:08:44.863Z,87.53
2023-03-07T09:09:44.819Z,87.28
2023-03-07T09:10:44.805Z,87.59
2023-03-07T09:11:44.808Z,87.32
2023-03-07T09:12:44.801Z,86.91
2023-03-07T09:13:52.055Z,87.22
2023-03-07T09:14:46.775Z,87.70
2023-03-07T09:15:44.775Z,86.55
2023-03-07T09:16:44.780Z,86.25
2023-03-07T09:17:44.761Z,85.94
2023-03-07T09:18:44.811Z,85.83
2023-03-07T09:19:44.734Z,85.00
2023-03-07T09:20:44.732Z,85.00
2023-03-07T09:21:44.811Z,84.86
2023-03-07T09:22:44.717Z,85.06
2023-03-07T09:23:44.736Z,85.48
2023-03-07T09:24:44.705Z,85.38
2023-03-07T09:25:44.698Z,84.86
2023-03-07T09:26:44.746Z,84.75
2023-03-07T09:27:44.682Z,84.72
2023-03-07T09:28:44.818Z,84.72
2023-03-07T09:29:44.671Z,84.09
2023-03-07T09:30:44.683Z,83.89
2023-03-07T09:31:44.725Z,83.02
2023-03-07T09:32:44.695Z,83.23
2023-03-07T09:33:46.924Z,82.19
2023-03-07T09:34:45.712Z,82.19
2023-03-07T09:35:44.671Z,82.71
2023-03-07T09:36:44.642Z,82.67
2023-03-07T09:37:44.609Z,83.02
2023-03-07T09:38:44.668Z,82.71
2023-03-07T09:39:44.606Z,82.29
2023-03-07T09:40:44.594Z,81.95
2023-03-07T09:41:44.593Z,81.47
2023-03-07T09:42:44.582Z,81.74
2023-03-07T09:43:44.598Z,81.64
2023-03-07T09:44:44.579Z,81.43
2023-03-07T09:45:44.611Z,81.64
2023-03-07T09:46:44.548Z,80.71
2023-03-07T09:47:44.551Z,81.02
2023-03-07T09:48:44.585Z,80.81
2023-03-07T09:49:44.528Z,80.81
2023-03-07T09:50:44.518Z,80.71
2023-03-07T09:51:44.514Z,79.26
2023-03-07T09:52:44.511Z,79.98
2023-03-07T09:53:44.585Z,80.19
2023-03-07T09:54:44.492Z,80.08
2023-03-07T09:55:44.491Z,80.08
2023-03-07T09:56:44.470Z,80.50
2023-03-07T09:57:44.471Z,80.19
2023-03-07T09:58:44.487Z,80.19
2023-03-07T09:59:44.453Z,80.19
2023-03-07T10:00:44.441Z,79.36
2023-03-07T10:01:44.439Z,80.50
2023-03-07T10:02:44.433Z,79.16
2023-03-07T10:03:44.498Z,79.26
2023-03-07T10:04:44.537Z,79.88
2023-03-07T10:05:44.408Z,80.50
2023-03-07T10:06:44.403Z,80.22
2023-03-07T10:07:44.403Z,79.91
2023-03-07T10:08:44.412Z,79.16
2023-03-07T10:09:44.375Z,79.60
2023-03-07T10:10:44.385Z,79.09
2023-03-07T10:11:44.398Z,78.78
2023-03-07T10:12:44.362Z,79.47
2023-03-07T10:13:44.378Z,79.40
2023-03-07T10:14:44.359Z,79.19
2023-03-07T10:15:44.353Z,79.40
2023-03-07T10:16:44.371Z,79.60
2023-03-07T10:17:44.308Z,79.60
2023-03-07T10:18:44.334Z,79.60
2023-03-07T10:19:44.298Z,79.09
2023-03-07T10:20:44.297Z,79.09
2023-03-07T10:21:44.282Z,79.19
2023-03-07T10:22:44.278Z,79.19
2023-03-07T10:23:44.289Z,79.16
2023-03-07T10:24:44.263Z,79.50
2023-03-07T10:25:44.266Z,79.26
2023-03-07T10:26:44.260Z,79.19
2023-03-07T10:27:44.233Z,79.16
2023-03-07T10:28:44.278Z,79.50
2023-03-07T10:29:44.222Z,79.50
2023-03-07T10:30:44.214Z,79.91
2023-03-07T10:31:44.252Z,79.60
2023-03-07T10:32:44.262Z,79.71
2023-03-07T10:33:44.220Z,80.12
2023-03-07T10:34:44.207Z,79.47
2023-03-07T10:35:44.319Z,80.40
2023-03-07T10:36:44.165Z,79.71
2023-03-07T10:37:44.155Z,79.81
2023-03-07T10:38:44.195Z,79.77
2023-03-07T10:39:44.142Z,80.54
2023-03-07T10:40:44.137Z,80.43
2023-03-07T10:41:44.123Z,80.22
2023-03-07T10:42:44.134Z,79.81
2023-03-07T10:43:44.122Z,79.47
2023-03-07T10:44:44.131Z,79.71
2023-03-07T10:45:44.189Z,80.22
2023-03-07T10:46:55.355Z,79.60
2023-03-07T10:47:46.077Z,79.57
2023-03-07T10:48:44.085Z,79.91
2023-03-07T10:49:44.101Z,79.60
2023-03-07T10:50:44.050Z,80.02
2023-03-07T10:51:44.058Z,80.60
2023-03-07T10:52:44.034Z,80.40
2023-03-07T10:53:44.054Z,80.29
2023-03-07T10:54:44.047Z,80.22
2023-03-07T10:55:44.020Z,79.98
2023-03-07T10:56:44.004Z,80.74
2023-03-07T10:57:44.013Z,81.47
2023-03-07T10:58:43.989Z,81.88
2023-03-07T10:59:45.009Z,81.74
2023-03-07T11:00:43.985Z,81.74
2023-03-07T11:01:43.989Z,81.95
2023-03-07T11:02:43.956Z,82.05
2023-03-07T11:03:52.855Z,82.19
2023-03-07T11:04:45.992Z,81.95
2023-03-07T11:05:43.949Z,82.60
2023-03-07T11:06:43.929Z,82.92
2023-03-07T11:07:43.923Z,83.81
2023-03-07T11:08:43.910Z,83.95
2023-03-07T11:09:43.939Z,84.06
2023-03-07T11:10:43.907Z,84.58
2023-03-07T11:11:43.894Z,84.16
2023-03-07T11:12:43.900Z,84.47
2023-03-07T11:13:43.943Z,84.47
2023-03-07T11:14:43.903Z,84.37
2023-03-07T11:15:43.881Z,84.99
2023-03-07T11:16:43.877Z,84.27
2023-03-07T11:17:43.856Z,84.58
2023-03-07T11:18:43.913Z,84.58
2023-03-07T11:19:43.855Z,84.43
2023-03-07T11:20:43.844Z,85.05
2023-03-07T11:21:43.816Z,84.91
2023-03-07T11:22:43.817Z,84.84
2023-03-07T11:23:43.825Z,83.56
2023-03-07T11:24:43.819Z,84.29
2023-03-07T11:25:43.789Z,84.53
2023-03-07T11:26:43.795Z,84.19
2023-03-07T11:27:43.876Z,84.50
2023-03-07T11:28:43.775Z,84.39
2023-03-07T11:29:43.807Z,85.16
2023-03-07T11:30:43.775Z,85.26
2023-03-07T11:31:43.740Z,85.16
2023-03-07T11:32:43.799Z,85.26
2023-03-07T11:33:56.782Z,84.84
2023-03-07T11:34:45.744Z,85.61
2023-03-07T11:35:43.741Z,85.82
2023-03-07T11:36:43.727Z,86.19
2023-03-07T11:37:43.696Z,86.65
2023-03-07T11:38:43.697Z,86.13
2023-03-07T11:39:43.704Z,86.13
2023-03-07T11:40:43.721Z,86.44
2023-03-07T11:41:43.663Z,87.54
2023-03-07T11:42:43.649Z,87.33
2023-03-07T11:43:43.651Z,87.33
2023-03-07T11:44:43.701Z,87.54
2023-03-07T11:45:43.639Z,87.27
2023-03-07T11:46:43.680Z,87.33
2023-03-07T11:47:43.627Z,87.95
2023-03-07T11:48:43.623Z,87.23
2023-03-07T11:49:43.631Z,87.33
2023-03-07T11:50:43.637Z,87.12
2023-03-07T11:51:43.604Z,88.06
2023-03-07T11:52:43.606Z,88.36
2023-03-07T11:53:43.578Z,88.12
2023-03-07T11:54:43.605Z,88.46
2023-03-07T11:55:43.581Z,87.54
2023-03-07T11:56:43.592Z,87.29
2023-03-07T11:57:43.580Z,87.43
2023-03-07T11:58:43.558Z,87.23
2023-03-07T11:59:43.573Z,87.33
2023-03-07T12:00:43.539Z,87.23
2023-03-07T12:01:43.559Z,87.43
2023-03-07T12:02:43.599Z,87.12
2023-03-07T12:03:43.510Z,87.43
2023-03-07T12:04:43.568Z,87.43
2023-03-07T12:05:43.563Z,87.12
2023-03-07T12:06:43.503Z,86.50
2023-03-07T12:07:43.492Z,86.40
2023-03-07T12:08:43.469Z,86.50
2023-03-07T12:09:43.495Z,85.78
2023-03-07T12:10:43.476Z,85.68
2023-03-07T12:11:43.472Z,85.57
2023-03-07T12:12:43.446Z,85.57
2023-03-07T12:13:43.439Z,86.05
2023-03-07T12:14:44.465Z,85.94
2023-03-07T12:15:43.424Z,86.15
2023-03-07T12:16:43.605Z,86.36
2023-03-07T12:17:43.406Z,85.94
2023-03-07T12:18:43.397Z,86.05
2023-03-07T12:19:43.449Z,86.05
2023-03-07T12:20:43.405Z,84.91
2023-03-07T12:21:43.372Z,85.16
2023-03-07T12:22:43.375Z,85.57
2023-03-07T12:23:43.369Z,85.53
2023-03-07T12:24:43.483Z,85.16
2023-03-07T12:25:43.352Z,85.26
2023-03-07T12:26:43.351Z,85.53
2023-03-07T12:27:43.346Z,85.84
2023-03-07T12:28:43.320Z,85.78
2023-03-07T12:29:43.428Z,84.53
2023-03-07T12:30:43.334Z,86.09
2023-03-07T12:31:43.353Z,85.57
2023-03-07T12:32:43.488Z,85.47
2023-03-07T12:33:43.293Z,85.26
2023-03-07T12:34:43.291Z,85.26
2023-03-07T12:35:43.356Z,84.95
2023-03-07T12:36:43.349Z,85.05
2023-03-07T12:37:43.293Z,85.26
2023-03-07T12:38:43.272Z,85.05
2023-03-07T12:39:43.258Z,85.47
2023-03-07T12:40:43.270Z,85.57
2023-03-07T12:41:43.226Z,85.68
2023-03-07T12:42:43.222Z,85.74
2023-03-07T12:43:43.216Z,85.63
2023-03-07T12:44:43.208Z,85.42
2023-03-07T12:45:43.422Z,85.11
2023-03-07T12:46:43.187Z,85.02
2023-03-07T12:47:43.181Z,85.11
2023-03-07T12:48:43.181Z,84.81
2023-03-07T12:49:49.656Z,85.02
2023-03-07T12:50:45.188Z,85.11
2023-03-07T12:51:43.173Z,85.11
2023-03-07T12:52:43.143Z,85.32